sensor_id;sensor_type;location;lat;lon;timestamp;P1;durP1;ratioP1;P2;durP2;ratioP2
18574;SDS011;9417;16.484;102.872;2023-04-09T00:01:25;18.10;;;10.73;;
18574;SDS011;9417;16.484;102.872;2023-04-09T00:03:32;16.98;;;10.88;;
18574;SDS011;9417;16.484;102.872;2023-04-09T00:05:40;16.05;;;10.98;;
18574;SDS011;9417;16.484;102.872;2023-04-09T00:07:49;20.23;;;11.80;;
18574;SDS011;9417;16.484;102.872;2023-04-09T00:09:57;17.65;;;10.90;;
18574;SDS011;9417;16.484;102.872;2023-04-09T00:12:04;16.48;;;10.80;;
18574;SDS011;9417;16.484;102.872;2023-04-09T00:14:11;19.38;;;10.80;;
18574;SDS011;9417;16.484;102.872;2023-04-09T00:16:18;15.55;;;10.02;;
18574;SDS011;9417;16.484;102.872;2023-04-09T00:18:25;15.98;;;10.75;;
18574;SDS011;9417;16.484;102.872;2023-04-09T00:20:32;16.95;;;11.07;;
18574;SDS011;9417;16.484;102.872;2023-04-09T00:22:40;19.50;;;10.80;;
18574;SDS011;9417;16.484;102.872;2023-04-09T00:24:49;18.40;;;9.95;;
18574;SDS011;9417;16.484;102.872;2023-04-09T00:26:56;12.52;;;8.75;;
18574;SDS011;9417;16.484;102.872;2023-04-09T00:29:03;17.42;;;9.85;;
18574;SDS011;9417;16.484;102.872;2023-04-09T00:31:10;15.63;;;10.10;;
18574;SDS011;9417;16.484;102.872;2023-04-09T00:33:17;14.95;;;9.32;;
18574;SDS011;9417;16.484;102.872;2023-04-09T00:35:25;18.30;;;10.30;;
18574;SDS011;9417;16.484;102.872;2023-04-09T00:37:32;15.63;;;9.13;;
18574;SDS011;9417;16.484;102.872;2023-04-09T00:39:39;17.10;;;10.45;;
18574;SDS011;9417;16.484;102.872;2023-04-09T00:41:48;13.52;;;9.40;;
18574;SDS011;9417;16.484;102.872;2023-04-09T00:44:00;13.38;;;9.60;;
18574;SDS011;9417;16.484;102.872;2023-04-09T00:46:07;12.90;;;9.23;;
18574;SDS011;9417;16.484;102.872;2023-04-09T00:48:14;12.82;;;9.07;;
18574;SDS011;9417;16.484;102.872;2023-04-09T00:50:23;14.02;;;8.88;;
18574;SDS011;9417;16.484;102.872;2023-04-09T00:52:30;12.00;;;8.65;;
18574;SDS011;9417;16.484;102.872;2023-04-09T00:54:38;15.18;;;9.35;;
18574;SDS011;9417;16.484;102.872;2023-04-09T00:56:46;12.43;;;9.18;;
18574;SDS011;9417;16.484;102.872;2023-04-09T00:58:55;11.48;;;8.48;;
18574;SDS011;9417;16.484;102.872;2023-04-09T01:01:03;13.35;;;9.32;;
18574;SDS011;9417;16.484;102.872;2023-04-09T01:03:10;14.38;;;9.25;;
18574;SDS011;9417;16.484;102.872;2023-04-09T01:05:18;15.25;;;9.52;;
18574;SDS011;9417;16.484;102.872;2023-04-09T01:07:29;17.65;;;9.55;;
18574;SDS011;9417;16.484;102.872;2023-04-09T01:09:46;27.10;;;9.73;;
18574;SDS011;9417;16.484;102.872;2023-04-09T01:12:11;13.93;;;9.10;;
18574;SDS011;9417;16.484;102.872;2023-04-09T01:14:29;11.70;;;9.25;;
18574;SDS011;9417;16.484;102.872;2023-04-09T01:16:43;12.90;;;9.32;;
18574;SDS011;9417;16.484;102.872;2023-04-09T01:19:00;14.80;;;9.38;;
18574;SDS011;9417;16.484;102.872;2023-04-09T01:21:14;15.70;;;9.35;;
18574;SDS011;9417;16.484;102.872;2023-04-09T01:23:28;13.45;;;8.77;;
18574;SDS011;9417;16.484;102.872;2023-04-09T01:25:54;15.00;;;9.20;;
18574;SDS011;9417;16.484;102.872;2023-04-09T01:28:32;13.95;;;8.90;;
18574;SDS011;9417;16.484;102.872;2023-04-09T01:30:44;16.10;;;9.40;;
18574;SDS011;9417;16.484;102.872;2023-04-09T01:32:54;15.77;;;9.55;;
18574;SDS011;9417;16.484;102.872;2023-04-09T01:35:03;14.77;;;8.98;;
18574;SDS011;9417;16.484;102.872;2023-04-09T01:37:13;16.00;;;9.30;;
18574;SDS011;9417;16.484;102.872;2023-04-09T01:39:21;16.85;;;9.75;;
18574;SDS011;9417;16.484;102.872;2023-04-09T01:41:30;17.65;;;9.93;;
18574;SDS011;9417;16.484;102.872;2023-04-09T01:43:40;15.45;;;10.05;;
18574;SDS011;9417;16.484;102.872;2023-04-09T01:45:48;15.88;;;9.38;;
18574;SDS011;9417;16.484;102.872;2023-04-09T01:47:56;15.35;;;9.57;;
18574;SDS011;9417;16.484;102.872;2023-04-09T01:50:04;15.18;;;9.45;;
18574;SDS011;9417;16.484;102.872;2023-04-09T01:52:13;13.88;;;9.77;;
18574;SDS011;9417;16.484;102.872;2023-04-09T01:54:20;13.98;;;9.20;;
18574;SDS011;9417;16.484;102.872;2023-04-09T01:56:38;14.02;;;9.65;;
18574;SDS011;9417;16.484;102.872;2023-04-09T01:58:47;17.85;;;10.43;;
18574;SDS011;9417;16.484;102.872;2023-04-09T02:00:56;15.57;;;9.93;;
18574;SDS011;9417;16.484;102.872;2023-04-09T02:03:09;15.15;;;10.65;;
18574;SDS011;9417;16.484;102.872;2023-04-09T02:05:22;14.80;;;10.40;;
18574;SDS011;9417;16.484;102.872;2023-04-09T02:07:34;13.95;;;10.07;;
18574;SDS011;9417;16.484;102.872;2023-04-09T02:09:45;14.85;;;10.02;;
18574;SDS011;9417;16.484;102.872;2023-04-09T02:11:54;13.75;;;10.05;;
18574;SDS011;9417;16.484;102.872;2023-04-09T02:14:05;13.50;;;10.02;;
18574;SDS011;9417;16.484;102.872;2023-04-09T02:16:13;13.73;;;10.40;;
18574;SDS011;9417;16.484;102.872;2023-04-09T02:18:25;18.17;;;10.65;;
18574;SDS011;9417;16.484;102.872;2023-04-09T02:20:34;16.67;;;10.18;;
18574;SDS011;9417;16.484;102.872;2023-04-09T02:22:42;13.55;;;10.38;;
18574;SDS011;9417;16.484;102.872;2023-04-09T02:24:49;14.10;;;10.70;;
18574;SDS011;9417;16.484;102.872;2023-04-09T02:26:57;16.42;;;11.50;;
18574;SDS011;9417;16.484;102.872;2023-04-09T02:29:06;14.38;;;10.98;;
18574;SDS011;9417;16.484;102.872;2023-04-09T02:31:13;15.57;;;10.85;;
18574;SDS011;9417;16.484;102.872;2023-04-09T02:33:20;14.35;;;11.15;;
18574;SDS011;9417;16.484;102.872;2023-04-09T02:35:27;15.77;;;10.82;;
18574;SDS011;9417;16.484;102.872;2023-04-09T02:37:34;16.17;;;10.20;;
18574;SDS011;9417;16.484;102.872;2023-04-09T02:39:42;17.88;;;11.63;;
18574;SDS011;9417;16.484;102.872;2023-04-09T02:41:49;22.48;;;12.13;;
18574;SDS011;9417;16.484;102.872;2023-04-09T02:43:57;17.23;;;11.35;;
18574;SDS011;9417;16.484;102.872;2023-04-09T02:46:06;16.73;;;10.88;;
18574;SDS011;9417;16.484;102.872;2023-04-09T02:48:13;19.10;;;12.75;;
18574;SDS011;9417;16.484;102.872;2023-04-09T02:50:20;17.88;;;12.13;;
18574;SDS011;9417;16.484;102.872;2023-04-09T02:52:30;21.35;;;12.32;;
18574;SDS011;9417;16.484;102.872;2023-04-09T02:54:37;19.52;;;12.73;;
18574;SDS011;9417;16.484;102.872;2023-04-09T02:56:44;17.17;;;12.23;;
18574;SDS011;9417;16.484;102.872;2023-04-09T02:58:51;18.45;;;12.68;;
18574;SDS011;9417;16.484;102.872;2023-04-09T03:00:58;16.67;;;11.77;;
18574;SDS011;9417;16.484;102.872;2023-04-09T03:03:08;18.25;;;12.98;;
18574;SDS011;9417;16.484;102.872;2023-04-09T03:05:16;18.35;;;12.25;;
18574;SDS011;9417;16.484;102.872;2023-04-09T03:07:23;19.58;;;13.45;;
18574;SDS011;9417;16.484;102.872;2023-04-09T03:09:30;19.85;;;12.32;;
18574;SDS011;9417;16.484;102.872;2023-04-09T03:11:37;17.02;;;12.63;;
18574;SDS011;9417;16.484;102.872;2023-04-09T03:13:45;22.02;;;13.20;;
18574;SDS011;9417;16.484;102.872;2023-04-09T03:15:52;16.52;;;12.27;;
18574;SDS011;9417;16.484;102.872;2023-04-09T03:18:01;19.70;;;12.77;;
18574;SDS011;9417;16.484;102.872;2023-04-09T03:20:10;16.10;;;12.68;;
18574;SDS011;9417;16.484;102.872;2023-04-09T03:22:19;20.42;;;13.02;;
18574;SDS011;9417;16.484;102.872;2023-04-09T03:24:27;19.40;;;12.93;;
18574;SDS011;9417;16.484;102.872;2023-04-09T03:26:40;18.25;;;12.30;;
18574;SDS011;9417;16.484;102.872;2023-04-09T03:28:49;19.15;;;12.25;;
18574;SDS011;9417;16.484;102.872;2023-04-09T03:30:56;16.15;;;11.25;;
18574;SDS011;9417;16.484;102.872;2023-04-09T03:33:08;15.93;;;12.65;;
18574;SDS011;9417;16.484;102.872;2023-04-09T03:35:25;22.60;;;13.43;;
18574;SDS011;9417;16.484;102.872;2023-04-09T03:37:34;15.40;;;12.10;;
18574;SDS011;9417;16.484;102.872;2023-04-09T03:39:49;17.20;;;11.68;;
18574;SDS011;9417;16.484;102.872;2023-04-09T03:41:59;16.27;;;11.80;;
18574;SDS011;9417;16.484;102.872;2023-04-09T03:44:16;17.23;;;13.00;;
18574;SDS011;9417;16.484;102.872;2023-04-09T03:46:37;18.48;;;12.63;;
18574;SDS011;9417;16.484;102.872;2023-04-09T03:48:49;17.92;;;12.35;;
18574;SDS011;9417;16.484;102.872;2023-04-09T03:51:03;16.88;;;12.05;;
18574;SDS011;9417;16.484;102.872;2023-04-09T03:55:20;16.85;;;11.48;;
18574;SDS011;9417;16.484;102.872;2023-04-09T03:57:27;15.85;;;11.52;;
18574;SDS011;9417;16.484;102.872;2023-04-09T03:59:35;17.95;;;11.52;;
18574;SDS011;9417;16.484;102.872;2023-04-09T04:01:43;16.88;;;11.70;;
18574;SDS011;9417;16.484;102.872;2023-04-09T04:03:51;16.40;;;11.77;;
18574;SDS011;9417;16.484;102.872;2023-04-09T04:06:04;17.95;;;11.55;;
18574;SDS011;9417;16.484;102.872;2023-04-09T04:08:22;20.45;;;12.93;;
18574;SDS011;9417;16.484;102.872;2023-04-09T04:10:30;17.52;;;11.57;;
18574;SDS011;9417;16.484;102.872;2023-04-09T04:12:39;16.67;;;11.65;;
18574;SDS011;9417;16.484;102.872;2023-04-09T04:14:55;18.63;;;11.93;;
18574;SDS011;9417;16.484;102.872;2023-04-09T04:17:23;16.92;;;11.05;;
18574;SDS011;9417;16.484;102.872;2023-04-09T04:19:30;15.88;;;11.00;;
18574;SDS011;9417;16.484;102.872;2023-04-09T04:21:39;16.55;;;11.50;;
18574;SDS011;9417;16.484;102.872;2023-04-09T04:23:46;14.90;;;11.02;;
18574;SDS011;9417;16.484;102.872;2023-04-09T04:25:58;14.80;;;11.55;;
18574;SDS011;9417;16.484;102.872;2023-04-09T04:28:09;17.00;;;10.55;;
18574;SDS011;9417;16.484;102.872;2023-04-09T04:30:17;14.70;;;11.38;;
18574;SDS011;9417;16.484;102.872;2023-04-09T04:32:35;16.30;;;11.20;;
18574;SDS011;9417;16.484;102.872;2023-04-09T04:34:47;16.20;;;11.77;;
18574;SDS011;9417;16.484;102.872;2023-04-09T04:37:01;15.10;;;11.07;;
18574;SDS011;9417;16.484;102.872;2023-04-09T04:39:08;16.23;;;12.05;;
18574;SDS011;9417;16.484;102.872;2023-04-09T04:41:45;14.85;;;10.77;;
18574;SDS011;9417;16.484;102.872;2023-04-09T04:43:59;13.73;;;11.27;;
18574;SDS011;9417;16.484;102.872;2023-04-09T04:46:07;15.73;;;11.85;;
18574;SDS011;9417;16.484;102.872;2023-04-09T04:48:15;13.73;;;10.65;;
18574;SDS011;9417;16.484;102.872;2023-04-09T04:50:22;14.85;;;11.85;;
18574;SDS011;9417;16.484;102.872;2023-04-09T04:52:43;15.63;;;11.90;;
18574;SDS011;9417;16.484;102.872;2023-04-09T04:54:51;16.92;;;11.77;;
18574;SDS011;9417;16.484;102.872;2023-04-09T04:56:59;17.63;;;12.52;;
18574;SDS011;9417;16.484;102.872;2023-04-09T04:59:16;16.30;;;11.93;;
18574;SDS011;9417;16.484;102.872;2023-04-09T05:01:36;14.15;;;10.55;;
18574;SDS011;9417;16.484;102.872;2023-04-09T05:03:46;15.90;;;12.20;;
18574;SDS011;9417;16.484;102.872;2023-04-09T05:06:05;18.08;;;12.68;;
18574;SDS011;9417;16.484;102.872;2023-04-09T05:08:19;16.73;;;12.05;;
18574;SDS011;9417;16.484;102.872;2023-04-09T05:10:28;17.33;;;12.17;;
18574;SDS011;9417;16.484;102.872;2023-04-09T05:12:35;17.60;;;12.15;;
18574;SDS011;9417;16.484;102.872;2023-04-09T05:14:43;15.40;;;11.50;;
18574;SDS011;9417;16.484;102.872;2023-04-09T05:16:50;18.30;;;13.25;;
18574;SDS011;9417;16.484;102.872;2023-04-09T05:19:03;14.48;;;11.90;;
18574;SDS011;9417;16.484;102.872;2023-04-09T05:21:11;18.05;;;13.07;;
18574;SDS011;9417;16.484;102.872;2023-04-09T05:23:21;18.08;;;13.65;;
18574;SDS011;9417;16.484;102.872;2023-04-09T05:25:29;19.05;;;13.52;;
18574;SDS011;9417;16.484;102.872;2023-04-09T05:27:37;16.98;;;13.23;;
18574;SDS011;9417;16.484;102.872;2023-04-09T05:29:44;18.45;;;12.70;;
18574;SDS011;9417;16.484;102.872;2023-04-09T05:31:52;19.40;;;13.85;;
18574;SDS011;9417;16.484;102.872;2023-04-09T05:34:04;19.70;;;13.20;;
18574;SDS011;9417;16.484;102.872;2023-04-09T05:36:26;20.98;;;13.88;;
18574;SDS011;9417;16.484;102.872;2023-04-09T05:38:37;17.77;;;14.45;;
18574;SDS011;9417;16.484;102.872;2023-04-09T05:40:44;18.48;;;14.30;;
18574;SDS011;9417;16.484;102.872;2023-04-09T05:42:52;20.63;;;15.25;;
18574;SDS011;9417;16.484;102.872;2023-04-09T05:45:09;20.02;;;15.75;;
18574;SDS011;9417;16.484;102.872;2023-04-09T05:47:23;16.20;;;14.00;;
18574;SDS011;9417;16.484;102.872;2023-04-09T05:49:41;17.48;;;14.15;;
18574;SDS011;9417;16.484;102.872;2023-04-09T05:51:51;17.00;;;13.70;;
18574;SDS011;9417;16.484;102.872;2023-04-09T05:54:04;17.45;;;14.18;;
18574;SDS011;9417;16.484;102.872;2023-04-09T05:56:13;20.60;;;15.20;;
18574;SDS011;9417;16.484;102.872;2023-04-09T05:58:27;23.40;;;15.70;;
18574;SDS011;9417;16.484;102.872;2023-04-09T06:00:34;18.92;;;14.95;;
18574;SDS011;9417;16.484;102.872;2023-04-09T06:02:43;18.13;;;14.70;;
18574;SDS011;9417;16.484;102.872;2023-04-09T06:04:51;18.88;;;14.82;;
18574;SDS011;9417;16.484;102.872;2023-04-09T06:06:59;17.98;;;14.68;;
18574;SDS011;9417;16.484;102.872;2023-04-09T06:09:08;18.02;;;14.77;;
18574;SDS011;9417;16.484;102.872;2023-04-09T06:11:15;22.25;;;14.60;;
18574;SDS011;9417;16.484;102.872;2023-04-09T06:13:24;18.60;;;14.98;;
18574;SDS011;9417;16.484;102.872;2023-04-09T06:15:31;19.42;;;14.63;;
18574;SDS011;9417;16.484;102.872;2023-04-09T06:17:38;22.15;;;16.17;;
18574;SDS011;9417;16.484;102.872;2023-04-09T06:19:46;17.70;;;14.43;;
18574;SDS011;9417;16.484;102.872;2023-04-09T06:21:53;19.05;;;14.88;;
18574;SDS011;9417;16.484;102.872;2023-04-09T06:24:01;23.35;;;16.15;;
18574;SDS011;9417;16.484;102.872;2023-04-09T06:26:10;18.75;;;14.35;;
18574;SDS011;9417;16.484;102.872;2023-04-09T06:28:17;21.30;;;14.82;;
18574;SDS011;9417;16.484;102.872;2023-04-09T06:30:24;22.55;;;15.45;;
18574;SDS011;9417;16.484;102.872;2023-04-09T06:32:31;21.88;;;15.27;;
18574;SDS011;9417;16.484;102.872;2023-04-09T06:34:55;19.45;;;14.82;;
18574;SDS011;9417;16.484;102.872;2023-04-09T06:37:02;17.85;;;14.95;;
18574;SDS011;9417;16.484;102.872;2023-04-09T06:39:09;18.90;;;14.50;;
18574;SDS011;9417;16.484;102.872;2023-04-09T06:41:21;18.33;;;14.38;;
18574;SDS011;9417;16.484;102.872;2023-04-09T06:43:32;20.38;;;15.10;;
18574;SDS011;9417;16.484;102.872;2023-04-09T06:45:39;23.20;;;16.83;;
18574;SDS011;9417;16.484;102.872;2023-04-09T06:47:46;18.77;;;14.30;;
18574;SDS011;9417;16.484;102.872;2023-04-09T06:49:53;18.73;;;14.82;;
18574;SDS011;9417;16.484;102.872;2023-04-09T06:52:00;21.35;;;15.05;;
18574;SDS011;9417;16.484;102.872;2023-04-09T06:54:08;20.88;;;16.05;;
18574;SDS011;9417;16.484;102.872;2023-04-09T06:56:15;17.40;;;13.77;;
18574;SDS011;9417;16.484;102.872;2023-04-09T06:58:24;17.88;;;15.20;;
18574;SDS011;9417;16.484;102.872;2023-04-09T07:00:31;21.95;;;15.55;;
18574;SDS011;9417;16.484;102.872;2023-04-09T07:02:38;18.67;;;14.88;;
18574;SDS011;9417;16.484;102.872;2023-04-09T07:04:46;18.75;;;15.60;;
18574;SDS011;9417;16.484;102.872;2023-04-09T07:06:53;19.60;;;14.60;;
18574;SDS011;9417;16.484;102.872;2023-04-09T07:09:01;21.25;;;14.80;;
18574;SDS011;9417;16.484;102.872;2023-04-09T07:11:09;23.33;;;15.65;;
18574;SDS011;9417;16.484;102.872;2023-04-09T07:13:16;20.63;;;15.13;;
18574;SDS011;9417;16.484;102.872;2023-04-09T07:15:26;22.38;;;15.75;;
18574;SDS011;9417;16.484;102.872;2023-04-09T07:17:33;17.67;;;14.93;;
18574;SDS011;9417;16.484;102.872;2023-04-09T07:19:41;20.52;;;15.35;;
18574;SDS011;9417;16.484;102.872;2023-04-09T07:21:48;19.90;;;15.32;;
18574;SDS011;9417;16.484;102.872;2023-04-09T07:23:55;18.23;;;13.52;;
18574;SDS011;9417;16.484;102.872;2023-04-09T07:26:02;20.13;;;15.07;;
18574;SDS011;9417;16.484;102.872;2023-04-09T07:28:09;18.95;;;14.85;;
18574;SDS011;9417;16.484;102.872;2023-04-09T07:30:17;19.98;;;14.98;;
18574;SDS011;9417;16.484;102.872;2023-04-09T07:32:25;18.35;;;14.80;;
18574;SDS011;9417;16.484;102.872;2023-04-09T07:34:33;17.40;;;14.73;;
18574;SDS011;9417;16.484;102.872;2023-04-09T07:36:40;18.13;;;15.30;;
18574;SDS011;9417;16.484;102.872;2023-04-09T07:38:48;20.60;;;15.57;;
18574;SDS011;9417;16.484;102.872;2023-04-09T07:40:56;18.80;;;16.05;;
18574;SDS011;9417;16.484;102.872;2023-04-09T07:43:03;19.38;;;14.90;;
18574;SDS011;9417;16.484;102.872;2023-04-09T07:45:10;18.27;;;14.95;;
18574;SDS011;9417;16.484;102.872;2023-04-09T07:47:18;22.40;;;15.40;;
18574;SDS011;9417;16.484;102.872;2023-04-09T07:49:27;22.50;;;16.15;;
18574;SDS011;9417;16.484;102.872;2023-04-09T07:51:34;20.95;;;16.13;;
18574;SDS011;9417;16.484;102.872;2023-04-09T07:53:41;19.20;;;15.15;;
18574;SDS011;9417;16.484;102.872;2023-04-09T07:55:49;19.23;;;15.00;;
18574;SDS011;9417;16.484;102.872;2023-04-09T07:57:56;19.33;;;16.02;;
18574;SDS011;9417;16.484;102.872;2023-04-09T08:00:04;22.50;;;16.75;;
18574;SDS011;9417;16.484;102.872;2023-04-09T08:02:14;21.53;;;16.07;;
18574;SDS011;9417;16.484;102.872;2023-04-09T08:04:22;23.30;;;15.98;;
18574;SDS011;9417;16.484;102.872;2023-04-09T08:06:31;20.00;;;15.70;;
18574;SDS011;9417;16.484;102.872;2023-04-09T08:08:38;20.40;;;15.93;;
18574;SDS011;9417;16.484;102.872;2023-04-09T08:10:45;20.20;;;16.27;;
18574;SDS011;9417;16.484;102.872;2023-04-09T08:12:53;20.75;;;16.00;;
18574;SDS011;9417;16.484;102.872;2023-04-09T08:15:00;19.95;;;15.13;;
18574;SDS011;9417;16.484;102.872;2023-04-09T08:17:08;20.13;;;15.55;;
18574;SDS011;9417;16.484;102.872;2023-04-09T08:19:16;20.70;;;15.65;;
18574;SDS011;9417;16.484;102.872;2023-04-09T08:21:23;19.55;;;15.40;;
18574;SDS011;9417;16.484;102.872;2023-04-09T08:23:33;19.05;;;15.20;;
18574;SDS011;9417;16.484;102.872;2023-04-09T08:25:40;19.25;;;15.48;;
18574;SDS011;9417;16.484;102.872;2023-04-09T08:27:47;18.27;;;15.25;;
18574;SDS011;9417;16.484;102.872;2023-04-09T08:29:55;20.23;;;16.02;;
18574;SDS011;9417;16.484;102.872;2023-04-09T08:32:02;20.63;;;15.80;;
18574;SDS011;9417;16.484;102.872;2023-04-09T08:34:10;20.15;;;16.45;;
18574;SDS011;9417;16.484;102.872;2023-04-09T08:36:18;19.73;;;15.48;;
18574;SDS011;9417;16.484;102.872;2023-04-09T08:38:26;23.70;;;17.20;;
18574;SDS011;9417;16.484;102.872;2023-04-09T08:40:35;23.92;;;16.00;;
18574;SDS011;9417;16.484;102.872;2023-04-09T08:42:43;20.23;;;15.60;;
18574;SDS011;9417;16.484;102.872;2023-04-09T08:44:50;19.52;;;15.27;;
18574;SDS011;9417;16.484;102.872;2023-04-09T08:46:58;20.23;;;15.23;;
18574;SDS011;9417;16.484;102.872;2023-04-09T08:49:07;19.80;;;15.23;;
18574;SDS011;9417;16.484;102.872;2023-04-09T08:51:15;19.63;;;14.52;;
18574;SDS011;9417;16.484;102.872;2023-04-09T08:53:23;18.38;;;15.65;;
18574;SDS011;9417;16.484;102.872;2023-04-09T08:55:30;21.70;;;15.60;;
18574;SDS011;9417;16.484;102.872;2023-04-09T08:57:41;20.40;;;15.70;;
18574;SDS011;9417;16.484;102.872;2023-04-09T08:59:49;20.65;;;15.35;;
18574;SDS011;9417;16.484;102.872;2023-04-09T09:02:06;22.05;;;16.50;;
18574;SDS011;9417;16.484;102.872;2023-04-09T09:04:14;19.17;;;15.80;;
18574;SDS011;9417;16.484;102.872;2023-04-09T09:06:22;19.92;;;15.60;;
18574;SDS011;9417;16.484;102.872;2023-04-09T09:08:30;22.55;;;15.63;;
18574;SDS011;9417;16.484;102.872;2023-04-09T09:10:37;20.60;;;14.75;;
18574;SDS011;9417;16.484;102.872;2023-04-09T09:12:48;20.17;;;16.38;;
18574;SDS011;9417;16.484;102.872;2023-04-09T09:14:55;21.05;;;15.48;;
18574;SDS011;9417;16.484;102.872;2023-04-09T09:17:03;19.85;;;14.80;;
18574;SDS011;9417;16.484;102.872;2023-04-09T09:19:26;21.58;;;15.82;;
18574;SDS011;9417;16.484;102.872;2023-04-09T09:21:35;21.23;;;14.68;;
18574;SDS011;9417;16.484;102.872;2023-04-09T09:23:44;18.02;;;14.90;;
18574;SDS011;9417;16.484;102.872;2023-04-09T09:25:53;18.30;;;14.07;;
18574;SDS011;9417;16.484;102.872;2023-04-09T09:28:07;23.15;;;15.27;;
18574;SDS011;9417;16.484;102.872;2023-04-09T09:30:19;19.42;;;15.02;;
18574;SDS011;9417;16.484;102.872;2023-04-09T09:32:27;23.20;;;15.60;;
18574;SDS011;9417;16.484;102.872;2023-04-09T09:34:34;18.35;;;15.40;;
18574;SDS011;9417;16.484;102.872;2023-04-09T09:36:41;17.35;;;14.85;;
18574;SDS011;9417;16.484;102.872;2023-04-09T09:38:52;20.63;;;15.75;;
18574;SDS011;9417;16.484;102.872;2023-04-09T09:41:02;21.70;;;14.75;;
18574;SDS011;9417;16.484;102.872;2023-04-09T09:43:23;17.90;;;14.85;;
18574;SDS011;9417;16.484;102.872;2023-04-09T09:45:31;21.08;;;15.52;;
18574;SDS011;9417;16.484;102.872;2023-04-09T09:47:39;19.05;;;14.93;;
18574;SDS011;9417;16.484;102.872;2023-04-09T09:49:46;19.95;;;15.30;;
18574;SDS011;9417;16.484;102.872;2023-04-09T09:51:54;19.65;;;14.93;;
18574;SDS011;9417;16.484;102.872;2023-04-09T09:54:06;20.38;;;15.43;;
18574;SDS011;9417;16.484;102.872;2023-04-09T09:56:15;22.00;;;15.35;;
18574;SDS011;9417;16.484;102.872;2023-04-09T09:58:30;19.00;;;15.35;;
18574;SDS011;9417;16.484;102.872;2023-04-09T10:00:41;23.10;;;14.98;;
18574;SDS011;9417;16.484;102.872;2023-04-09T10:02:53;20.15;;;15.38;;
18574;SDS011;9417;16.484;102.872;2023-04-09T10:05:04;18.58;;;14.95;;
18574;SDS011;9417;16.484;102.872;2023-04-09T10:07:13;20.77;;;15.20;;
18574;SDS011;9417;16.484;102.872;2023-04-09T10:09:21;18.83;;;14.75;;
18574;SDS011;9417;16.484;102.872;2023-04-09T10:11:32;20.27;;;14.48;;
18574;SDS011;9417;16.484;102.872;2023-04-09T10:13:45;20.17;;;15.80;;
18574;SDS011;9417;16.484;102.872;2023-04-09T10:15:56;20.85;;;15.07;;
18574;SDS011;9417;16.484;102.872;2023-04-09T10:18:04;18.20;;;14.55;;
18574;SDS011;9417;16.484;102.872;2023-04-09T10:20:13;20.60;;;15.10;;
18574;SDS011;9417;16.484;102.872;2023-04-09T10:22:24;21.30;;;15.50;;
18574;SDS011;9417;16.484;102.872;2023-04-09T10:24:34;24.90;;;15.18;;
18574;SDS011;9417;16.484;102.872;2023-04-09T10:26:41;18.00;;;15.68;;
18574;SDS011;9417;16.484;102.872;2023-04-09T10:29:03;20.20;;;14.68;;
18574;SDS011;9417;16.484;102.872;2023-04-09T10:31:16;23.65;;;15.55;;
18574;SDS011;9417;16.484;102.872;2023-04-09T10:33:26;21.67;;;15.68;;
18574;SDS011;9417;16.484;102.872;2023-04-09T10:35:33;22.90;;;15.65;;
18574;SDS011;9417;16.484;102.872;2023-04-09T10:37:40;21.88;;;15.60;;
18574;SDS011;9417;16.484;102.872;2023-04-09T10:39:55;18.50;;;15.13;;
18574;SDS011;9417;16.484;102.872;2023-04-09T10:42:07;20.50;;;15.52;;
18574;SDS011;9417;16.484;102.872;2023-04-09T10:44:23;22.50;;;15.90;;
18574;SDS011;9417;16.484;102.872;2023-04-09T10:46:34;24.65;;;16.85;;
18574;SDS011;9417;16.484;102.872;2023-04-09T10:48:43;24.35;;;16.67;;
18574;SDS011;9417;16.484;102.872;2023-04-09T10:50:52;20.40;;;16.05;;
18574;SDS011;9417;16.484;102.872;2023-04-09T10:53:01;25.73;;;19.25;;
18574;SDS011;9417;16.484;102.872;2023-04-09T10:55:09;28.83;;;20.58;;
18574;SDS011;9417;16.484;102.872;2023-04-09T10:57:37;31.23;;;19.27;;
18574;SDS011;9417;16.484;102.872;2023-04-09T10:59:49;25.42;;;18.42;;
18574;SDS011;9417;16.484;102.872;2023-04-09T11:01:57;24.35;;;17.83;;
18574;SDS011;9417;16.484;102.872;2023-04-09T11:04:06;24.10;;;18.02;;
18574;SDS011;9417;16.484;102.872;2023-04-09T11:06:17;21.60;;;17.30;;
18574;SDS011;9417;16.484;102.872;2023-04-09T11:08:28;21.77;;;17.02;;
18574;SDS011;9417;16.484;102.872;2023-04-09T11:10:36;24.50;;;17.15;;
18574;SDS011;9417;16.484;102.872;2023-04-09T11:12:45;21.52;;;16.52;;
18574;SDS011;9417;16.484;102.872;2023-04-09T11:14:54;20.05;;;17.02;;
18574;SDS011;9417;16.484;102.872;2023-04-09T11:17:02;24.92;;;17.65;;
18574;SDS011;9417;16.484;102.872;2023-04-09T11:19:09;22.42;;;17.08;;
18574;SDS011;9417;16.484;102.872;2023-04-09T11:21:17;22.77;;;17.30;;
18574;SDS011;9417;16.484;102.872;2023-04-09T11:23:24;23.02;;;17.20;;
18574;SDS011;9417;16.484;102.872;2023-04-09T11:25:32;22.25;;;17.65;;
18574;SDS011;9417;16.484;102.872;2023-04-09T11:27:42;21.85;;;16.83;;
18574;SDS011;9417;16.484;102.872;2023-04-09T11:29:55;21.52;;;17.52;;
18574;SDS011;9417;16.484;102.872;2023-04-09T11:32:03;22.80;;;16.63;;
18574;SDS011;9417;16.484;102.872;2023-04-09T11:34:10;24.73;;;19.00;;
18574;SDS011;9417;16.484;102.872;2023-04-09T11:36:17;27.42;;;17.92;;
18574;SDS011;9417;16.484;102.872;2023-04-09T11:38:25;23.42;;;17.02;;
18574;SDS011;9417;16.484;102.872;2023-04-09T11:40:35;24.88;;;18.33;;
18574;SDS011;9417;16.484;102.872;2023-04-09T11:42:51;29.67;;;18.80;;
18574;SDS011;9417;16.484;102.872;2023-04-09T11:45:01;24.10;;;17.95;;
18574;SDS011;9417;16.484;102.872;2023-04-09T11:47:09;26.25;;;18.38;;
18574;SDS011;9417;16.484;102.872;2023-04-09T11:49:19;26.02;;;17.92;;
18574;SDS011;9417;16.484;102.872;2023-04-09T11:51:27;27.85;;;18.20;;
18574;SDS011;9417;16.484;102.872;2023-04-09T11:53:35;26.35;;;18.15;;
18574;SDS011;9417;16.484;102.872;2023-04-09T11:55:45;28.10;;;18.80;;
18574;SDS011;9417;16.484;102.872;2023-04-09T11:57:56;26.55;;;18.75;;
18574;SDS011;9417;16.484;102.872;2023-04-09T12:00:09;25.83;;;18.60;;
18574;SDS011;9417;16.484;102.872;2023-04-09T12:02:17;28.50;;;21.15;;
18574;SDS011;9417;16.484;102.872;2023-04-09T12:04:25;27.75;;;19.95;;
18574;SDS011;9417;16.484;102.872;2023-04-09T12:06:32;33.67;;;20.67;;
18574;SDS011;9417;16.484;102.872;2023-04-09T12:08:46;28.25;;;19.75;;
18574;SDS011;9417;16.484;102.872;2023-04-09T12:11:04;28.67;;;19.40;;
18574;SDS011;9417;16.484;102.872;2023-04-09T12:13:14;29.92;;;18.85;;
18574;SDS011;9417;16.484;102.872;2023-04-09T12:15:24;32.30;;;19.58;;
18574;SDS011;9417;16.484;102.872;2023-04-09T12:17:31;30.90;;;18.88;;
18574;SDS011;9417;16.484;102.872;2023-04-09T12:19:39;25.65;;;19.13;;
18574;SDS011;9417;16.484;102.872;2023-04-09T12:21:46;28.48;;;20.30;;
18574;SDS011;9417;16.484;102.872;2023-04-09T12:23:54;25.48;;;19.00;;
18574;SDS011;9417;16.484;102.872;2023-04-09T12:26:02;25.70;;;19.90;;
18574;SDS011;9417;16.484;102.872;2023-04-09T12:28:09;27.40;;;18.90;;
18574;SDS011;9417;16.484;102.872;2023-04-09T12:30:18;29.40;;;20.17;;
18574;SDS011;9417;16.484;102.872;2023-04-09T12:32:27;35.22;;;21.38;;